Schaerbeek, Belgium
Current Conditions -  °F | °C
As of 6:50 AM on Sunday 23 Nov 2014 (Local Time) from EBBR Reporting Station
Clear Clear  
Wind Chill: 10°   Ceiling: Unl
Heat Index: 10°   Visibility: 6mi
Dew Point:   Wind: 8mph
Humidity: 87%   Direction: 170°S
Pressure: 30"   Gusts: NA
Location:  50.86°N, 4.39°E
Report Text: EBBR 230550Z 17007KT CAVOK 10/08 Q1016 NOSIG
Loading
Personal Weather Stations






























Interactive Weather Map New forecast layout! Learn more

10-Day Weather Forecast

Advertisements
Track Severe Weather on mobile